Time;durP1;ratioP1;P1;durP2;ratioP2;P2;SDS_P1;SDS_P2;PMS_P1;PMS_P2;Temp;Humidity;BMP_temperature;BMP_pressure;BME280_temperature;BME280_humidity;BME280_pressure;Samples;Min_cycle;Max_cycle;Signal;HPM_P1;HPM_P2
2021/10/01 00:01:28;;;;;;;5.72;1.50;;;12.00;73.20;;;;;;5011948;28;20045;-80
2021/10/01 00:03:55;;;;;;;5.53;1.45;;;12.10;73.20;;;;;;5011662;28;20129;-80
2021/10/01 00:06:23;;;;;;;8.27;1.50;;;12.00;73.20;;;;;;5011571;28;20042;-80
2021/10/01 00:08:50;;;;;;;6.95;1.55;;;12.00;73.30;;;;;;5011551;28;20054;-79
2021/10/01 00:11:17;;;;;;;8.55;2.15;;;12.00;73.40;;;;;;5011149;28;20053;-80
2021/10/01 00:13:44;;;;;;;6.28;1.70;;;12.00;73.40;;;;;;5011912;28;20068;-80
2021/10/01 00:16:11;;;;;;;4.57;1.45;;;12.00;73.40;;;;;;5011227;28;20038;-80
2021/10/01 00:18:38;;;;;;;10.27;1.85;;;12.00;73.30;;;;;;5010584;28;20053;-80
2021/10/01 00:21:06;;;;;;;5.38;1.60;;;12.00;73.40;;;;;;5011188;28;20108;-80
2021/10/01 00:23:33;;;;;;;9.52;1.83;;;12.00;73.40;;;;;;5011274;28;20089;-80
2021/10/01 00:26:02;;;;;;;10.10;1.90;;;12.00;73.40;;;;;;5011000;28;20053;-80
2021/10/01 00:28:30;;;;;;;7.68;1.45;;;12.00;73.40;;;;;;5010611;28;20057;-81
2021/10/01 00:30:57;;;;;;;7.57;1.60;;;12.00;73.40;;;;;;5011011;28;20511;-80
2021/10/01 00:33:23;;;;;;;7.85;1.55;;;12.00;73.40;;;;;;5010845;28;20430;-80
2021/10/01 00:35:51;;;;;;;10.43;1.70;;;12.00;73.40;;;;;;5010989;28;20105;-80
2021/10/01 00:38:18;;;;;;;6.32;1.95;;;12.00;73.40;;;;;;5011076;28;20058;-80
2021/10/01 00:40:45;;;;;;;6.80;1.55;;;12.00;73.60;;;;;;5011155;28;20053;-80
2021/10/01 00:43:11;;;;;;;7.28;1.60;;;12.00;73.60;;;;;;5010745;28;20073;-80
2021/10/01 00:45:38;;;;;;;7.10;2.15;;;12.00;73.60;;;;;;5010725;28;20050;-79
2021/10/01 00:48:06;;;;;;;7.90;1.40;;;11.90;73.60;;;;;;5010747;28;20054;-80
2021/10/01 00:50:32;;;;;;;8.65;1.80;;;11.90;73.60;;;;;;5010865;28;20104;-80
2021/10/01 00:52:59;;;;;;;6.22;2.00;;;11.90;73.60;;;;;;5011026;28;20053;-80
2021/10/01 00:55:26;;;;;;;9.73;1.92;;;11.90;73.60;;;;;;5010746;28;20108;-80
2021/10/01 00:57:54;;;;;;;9.50;1.95;;;11.90;73.60;;;;;;5010568;28;20099;-80
2021/10/01 01:00:30;;;;;;;8.52;1.67;;;11.90;73.70;;;;;;5010618;28;20097;-80
2021/10/01 01:02:59;;;;;;;7.82;1.80;;;11.90;73.70;;;;;;5010674;28;20503;-80
2021/10/01 01:05:53;;;;;;;7.45;1.67;;;11.90;73.70;;;;;;4995291;28;20042;-80
2021/10/01 01:08:24;;;;;;;7.38;2.00;;;11.90;73.80;;;;;;5009944;28;20050;-80
2021/10/01 01:11:09;;;;;;;11.07;1.75;;;11.80;73.80;;;;;;5010870;28;20108;-80
2021/10/01 01:13:57;;;;;;;9.57;2.00;;;11.80;73.90;;;;;;5010855;28;20461;-80
2021/10/01 01:16:31;;;;;;;9.38;2.17;;;11.70;74.00;;;;;;5010526;28;20510;-80
2021/10/01 01:19:00;;;;;;;11.93;2.05;;;11.70;74.00;;;;;;5010389;28;20507;-80
2021/10/01 01:21:36;;;;;;;7.97;1.85;;;11.70;74.10;;;;;;5010330;28;20466;-80
2021/10/01 01:24:40;;;;;;;8.95;1.88;;;11.60;74.20;;;;;;5010079;28;20084;-80
2021/10/01 01:27:33;;;;;;;8.20;1.87;;;11.60;74.20;;;;;;5010331;28;20054;-80
2021/10/01 01:30:12;;;;;;;17.70;1.90;;;11.50;74.30;;;;;;5010265;28;20346;-80
2021/10/01 01:32:41;;;;;;;3.70;1.30;;;11.50;74.50;;;;;;5014336;28;20096;-80
2021/10/01 01:35:14;;;;;;;7.80;1.45;;;11.50;74.50;;;;;;5014490;28;20049;-80
2021/10/01 01:37:51;;;;;;;8.50;1.90;;;11.50;74.70;;;;;;5012668;28;20104;-80
2021/10/01 01:40:21;;;;;;;7.95;2.00;;;11.40;74.60;;;;;;5014105;28;20495;-80
2021/10/01 01:42:51;;;;;;;6.68;1.73;;;11.50;74.80;;;;;;5014054;28;20045;-81
2021/10/01 01:45:19;;;;;;;6.38;1.75;;;11.40;74.80;;;;;;5014035;28;20100;-80
2021/10/01 01:47:47;;;;;;;7.25;1.77;;;11.40;74.80;;;;;;5014086;28;20046;-80
2021/10/01 01:50:16;;;;;;;6.70;1.70;;;11.40;74.80;;;;;;5014061;28;20050;-80
2021/10/01 01:52:44;;;;;;;6.60;1.75;;;11.40;74.90;;;;;;5014253;28;20046;-81
2021/10/01 01:55:13;;;;;;;10.25;1.58;;;11.40;74.90;;;;;;5013864;28;20076;-81
2021/10/01 01:57:45;;;;;;;6.35;1.85;;;11.40;75.00;;;;;;5013763;28;20050;-80
2021/10/01 02:00:13;;;;;;;5.95;1.55;;;11.40;75.00;;;;;;5013812;28;20045;-80
2021/10/01 02:02:41;;;;;;;5.28;1.65;;;11.40;75.00;;;;;;5013949;28;20096;-80
2021/10/01 02:05:10;;;;;;;6.53;2.13;;;11.40;75.10;;;;;;5014029;28;20057;-80
2021/10/01 02:07:39;;;;;;;8.05;2.28;;;11.40;75.00;;;;;;5011716;28;20054;-80
2021/10/01 02:10:07;;;;;;;6.03;1.83;;;11.30;75.10;;;;;;5013626;28;20049;-80
2021/10/01 02:12:35;;;;;;;7.30;1.52;;;11.30;75.10;;;;;;5013630;28;20618;-80
2021/10/01 02:15:04;;;;;;;7.65;1.92;;;11.30;75.20;;;;;;5013529;28;20046;-81
2021/10/01 02:17:35;;;;;;;8.25;1.80;;;11.30;75.20;;;;;;5013534;28;20057;-81
2021/10/01 02:20:05;;;;;;;6.40;1.70;;;11.30;75.30;;;;;;5013677;28;20217;-80
2021/10/01 02:22:34;;;;;;;12.93;2.08;;;11.20;75.40;;;;;;5013032;28;20049;-79
2021/10/01 02:25:01;;;;;;;7.53;2.10;;;11.20;75.30;;;;;;5013363;28;20042;-80
2021/10/01 02:28:23;;;;;;;6.22;1.60;;;11.20;75.40;;;;;;5013200;28;20510;-80
2021/10/01 02:30:52;;;;;;;10.05;1.65;;;11.20;75.40;;;;;;4967167;28;20404;-79
2021/10/01 02:33:33;;;;;;;11.98;1.85;;;11.10;75.60;;;;;;4967229;28;20114;-80
2021/10/01 02:36:00;;;;;;;8.63;2.08;;;11.20;75.60;;;;;;4966725;28;20693;-80
2021/10/01 02:38:27;;;;;;;7.15;1.85;;;11.10;75.60;;;;;;4971798;28;20046;-80
2021/10/01 02:40:54;;;;;;;7.53;1.80;;;11.10;75.70;;;;;;4967818;28;20054;-80
2021/10/01 02:43:20;;;;;;;10.50;1.90;;;11.10;75.80;;;;;;4966990;28;20106;-80
2021/10/01 02:45:47;;;;;;;9.85;2.22;;;11.10;75.80;;;;;;4967034;28;20082;-80
2021/10/01 02:48:14;;;;;;;7.80;1.65;;;11.10;76.00;;;;;;4967083;28;20090;-80
2021/10/01 02:50:44;;;;;;;8.48;2.17;;;11.10;76.10;;;;;;4969288;28;20051;-80
2021/10/01 02:53:22;;;;;;;6.72;1.88;;;11.10;76.00;;;;;;4969683;28;20649;-79
2021/10/01 02:55:58;;;;;;;7.00;1.65;;;11.10;76.00;;;;;;4971642;28;20459;-80
2021/10/01 02:58:26;;;;;;;10.80;2.10;;;11.10;76.00;;;;;;4971035;28;20495;-79
2021/10/01 03:00:53;;;;;;;9.10;1.70;;;11.10;76.10;;;;;;4966874;28;20047;-79
2021/10/01 03:03:25;;;;;;;7.65;1.88;;;11.10;76.10;;;;;;4966907;28;20054;-81
2021/10/01 03:05:57;;;;;;;9.65;1.90;;;11.00;76.10;;;;;;4987304;28;20049;-80
2021/10/01 03:08:26;;;;;;;6.80;1.77;;;11.10;76.10;;;;;;5012667;28;20061;-80
2021/10/01 03:10:55;;;;;;;7.10;1.48;;;11.10;76.10;;;;;;5009007;28;20042;-80
2021/10/01 03:13:24;;;;;;;10.48;2.30;;;11.10;76.10;;;;;;5012555;28;20092;-79
2021/10/01 03:15:53;;;;;;;7.72;1.50;;;11.00;76.20;;;;;;5012461;28;20046;-79
2021/10/01 03:18:22;;;;;;;6.38;1.80;;;11.00;76.30;;;;;;5012172;28;20144;-81
2021/10/01 03:20:49;;;;;;;7.28;2.13;;;11.10;76.30;;;;;;5012098;28;20041;-80
2021/10/01 03:23:19;;;;;;;10.82;2.78;;;11.00;76.30;;;;;;5012376;28;20057;-80
2021/10/01 03:25:48;;;;;;;10.50;1.50;;;11.00;76.30;;;;;;5013023;28;20053;-80
2021/10/01 03:28:16;;;;;;;8.90;1.70;;;11.00;76.30;;;;;;5012279;28;20112;-80
2021/10/01 03:30:47;;;;;;;9.73;1.90;;;11.00;76.50;;;;;;5012095;28;20092;-80
2021/10/01 03:33:14;;;;;;;6.18;1.65;;;11.00;76.50;;;;;;5012227;28;20104;-80
2021/10/01 03:35:43;;;;;;;7.32;1.70;;;11.00;76.50;;;;;;5011924;28;20049;-80
2021/10/01 03:38:11;;;;;;;6.15;2.00;;;11.00;76.50;;;;;;5011894;28;20050;-80
2021/10/01 03:40:43;;;;;;;6.40;1.65;;;11.00;76.50;;;;;;5010786;28;20045;-80
2021/10/01 03:43:11;;;;;;;11.13;2.03;;;11.00;76.70;;;;;;5011827;28;20048;-80
2021/10/01 03:45:38;;;;;;;7.90;1.70;;;10.90;76.70;;;;;;5011794;28;20100;-80
2021/10/01 03:48:05;;;;;;;10.57;1.95;;;11.00;76.80;;;;;;5011833;28;20088;-80
2021/10/01 03:50:34;;;;;;;8.25;1.67;;;11.00;76.70;;;;;;5011994;28;20042;-80
2021/10/01 03:53:01;;;;;;;8.18;1.63;;;11.00;76.70;;;;;;5011277;28;20118;-81
2021/10/01 03:55:28;;;;;;;5.03;1.67;;;10.90;76.70;;;;;;5011298;28;20465;-80
2021/10/01 03:57:55;;;;;;;9.07;1.75;;;10.90;76.80;;;;;;5011465;28;20087;-80
2021/10/01 04:00:22;;;;;;;8.90;2.03;;;10.90;76.80;;;;;;5011514;28;20104;-81
2021/10/01 04:02:49;;;;;;;9.88;2.03;;;10.90;76.80;;;;;;5011320;28;20045;-80
2021/10/01 04:05:19;;;;;;;11.00;2.30;;;10.90;76.90;;;;;;5011582;28;20523;-80
2021/10/01 04:07:46;;;;;;;11.70;1.80;;;10.90;76.80;;;;;;5012051;28;20046;-80
2021/10/01 04:10:13;;;;;;;8.73;2.05;;;10.90;76.90;;;;;;5011333;28;20057;-80
2021/10/01 04:12:40;;;;;;;5.35;1.45;;;10.90;77.00;;;;;;5011264;28;20052;-80
2021/10/01 04:15:07;;;;;;;8.05;1.70;;;10.90;77.10;;;;;;5011399;28;20046;-80
2021/10/01 04:17:34;;;;;;;13.68;2.10;;;10.80;77.20;;;;;;5011027;28;20046;-80
2021/10/01 04:20:02;;;;;;;7.20;1.90;;;10.90;77.20;;;;;;5011384;28;20495;-81
2021/10/01 04:22:29;;;;;;;7.70;2.17;;;10.90;77.30;;;;;;5010846;28;20045;-80
2021/10/01 04:24:56;;;;;;;8.30;1.77;;;10.90;77.40;;;;;;5011240;28;20089;-79
2021/10/01 04:27:23;;;;;;;7.53;1.58;;;10.90;77.40;;;;;;5011090;28;20506;-80
2021/10/01 04:29:50;;;;;;;6.88;1.92;;;10.90;77.50;;;;;;5011122;28;20462;-80
2021/10/01 04:32:16;;;;;;;7.70;1.63;;;10.90;77.40;;;;;;5010760;28;20132;-80
2021/10/01 04:37:10;;;;;;;7.90;1.90;;;10.90;77.40;;;;;;5010693;28;20474;-80
2021/10/01 04:39:37;;;;;;;6.80;1.75;;;10.90;77.40;;;;;;5010969;28;20104;-79
2021/10/01 04:42:04;;;;;;;5.55;1.75;;;10.90;77.50;;;;;;5010807;28;20068;-79
2021/10/01 04:44:31;;;;;;;4.47;1.67;;;10.90;77.50;;;;;;5010884;28;20062;-81
2021/10/01 04:46:58;;;;;;;5.22;1.65;;;10.90;77.60;;;;;;5010927;28;20053;-80
2021/10/01 04:49:24;;;;;;;3.65;1.48;;;10.90;77.60;;;;;;5010738;28;20046;-80
2021/10/01 04:51:51;;;;;;;8.15;1.80;;;10.90;77.60;;;;;;5010786;28;20053;-80
2021/10/01 04:54:18;;;;;;;7.30;1.60;;;10.90;77.60;;;;;;5010666;28;20104;-80
2021/10/01 04:56:45;;;;;;;7.38;1.63;;;10.90;77.60;;;;;;5010718;28;20622;-80
2021/10/01 04:59:12;;;;;;;10.57;2.08;;;10.90;77.70;;;;;;5010851;28;20054;-80
2021/10/01 05:01:38;;;;;;;7.50;1.70;;;10.90;77.70;;;;;;5010893;28;20123;-80
2021/10/01 05:04:06;;;;;;;7.50;1.70;;;10.90;77.80;;;;;;5010436;28;20088;-80
2021/10/01 05:06:32;;;;;;;5.00;1.52;;;10.90;77.80;;;;;;4988897;28;20116;-81
2021/10/01 05:08:59;;;;;;;7.28;1.55;;;11.00;78.00;;;;;;5010516;28;20565;-80
2021/10/01 05:11:26;;;;;;;9.88;1.65;;;10.90;78.10;;;;;;5010642;28;20596;-80
2021/10/01 05:13:53;;;;;;;9.40;1.75;;;11.00;78.00;;;;;;5006938;28;20045;-80
2021/10/01 05:16:20;;;;;;;5.80;1.60;;;11.00;78.00;;;;;;5010081;28;20065;-79
2021/10/01 05:18:46;;;;;;;7.57;1.67;;;11.00;78.00;;;;;;5010362;28;20395;-81
2021/10/01 05:21:13;;;;;;;7.97;2.13;;;11.00;78.00;;;;;;5010424;28;20041;-80
2021/10/01 05:23:40;;;;;;;8.73;1.63;;;11.00;78.00;;;;;;5010568;28;20076;-80
2021/10/01 05:26:08;;;;;;;11.13;2.20;;;11.10;78.00;;;;;;5010518;28;20053;-80
2021/10/01 05:28:35;;;;;;;6.47;1.80;;;11.10;78.00;;;;;;5010977;28;20060;-80
2021/10/01 05:31:02;;;;;;;11.32;2.10;;;11.10;78.00;;;;;;5009967;28;20379;-80
2021/10/01 05:33:28;;;;;;;9.07;1.70;;;11.10;78.00;;;;;;5010262;28;20057;-80
2021/10/01 05:35:55;;;;;;;11.15;1.75;;;11.10;78.00;;;;;;5010232;28;20052;-80
2021/10/01 05:38:24;;;;;;;7.95;1.55;;;11.10;78.00;;;;;;5010321;28;20577;-80
2021/10/01 05:40:52;;;;;;;6.38;1.85;;;11.20;77.90;;;;;;5010841;28;20108;-80
2021/10/01 05:43:24;;;;;;;9.90;1.50;;;11.20;77.90;;;;;;5010319;28;20046;-81
2021/10/01 05:45:54;;;;;;;9.75;1.98;;;11.20;77.90;;;;;;5009872;28;20054;-80
2021/10/01 05:48:23;;;;;;;5.97;1.75;;;11.20;77.80;;;;;;5010105;28;20489;-80
2021/10/01 05:50:55;;;;;;;7.63;1.60;;;11.20;77.70;;;;;;5010245;28;20050;-81
2021/10/01 05:56:13;;;;;;;10.02;1.70;;;11.20;77.80;;;;;;4984922;28;20046;-80
2021/10/01 05:58:42;;;;;;;5.53;1.65;;;11.20;77.70;;;;;;4988096;28;20122;-80
2021/10/01 06:01:09;;;;;;;9.20;1.77;;;11.20;77.80;;;;;;4986554;28;20656;-80
2021/10/01 06:03:37;;;;;;;11.20;2.05;;;11.20;77.80;;;;;;4986663;28;20050;-80
2021/10/01 06:06:04;;;;;;;9.05;2.03;;;11.20;77.90;;;;;;4986447;28;20111;-80
2021/10/01 06:08:31;;;;;;;4.72;1.70;;;11.20;78.00;;;;;;4986675;28;20050;-80
2021/10/01 06:10:58;;;;;;;9.07;2.10;;;11.20;78.00;;;;;;4988055;28;20519;-80
2021/10/01 06:13:25;;;;;;;7.53;1.60;;;11.20;78.00;;;;;;4985368;28;20101;-81
2021/10/01 06:15:52;;;;;;;10.20;2.35;;;11.20;78.10;;;;;;4986410;28;20112;-80
2021/10/01 06:18:19;;;;;;;12.05;2.30;;;11.20;78.10;;;;;;4990029;28;20661;-79
2021/10/01 06:20:46;;;;;;;9.65;2.33;;;11.20;78.10;;;;;;4990021;28;20043;-80
2021/10/01 06:23:13;;;;;;;12.25;3.17;;;11.20;78.10;;;;;;4990053;28;20051;-80
2021/10/01 06:25:41;;;;;;;7.25;2.25;;;11.20;78.10;;;;;;4991865;28;20105;-79
2021/10/01 06:28:08;;;;;;;7.93;2.63;;;11.20;78.20;;;;;;4989401;28;20155;-79
2021/10/01 06:30:35;;;;;;;8.55;2.05;;;11.30;78.20;;;;;;4989212;28;20047;-80
2021/10/01 06:33:02;;;;;;;7.57;2.08;;;11.20;78.20;;;;;;4998494;28;20053;-80
2021/10/01 06:35:29;;;;;;;11.02;2.40;;;11.20;78.20;;;;;;5013378;28;20108;-80
2021/10/01 06:37:56;;;;;;;9.85;2.42;;;11.30;78.20;;;;;;5013993;28;20147;-79
2021/10/01 06:40:23;;;;;;;7.28;2.40;;;11.30;78.20;;;;;;5015888;28;20057;-80
2021/10/01 06:42:51;;;;;;;10.50;2.55;;;11.30;78.20;;;;;;5018757;28;20469;-81
2021/10/01 06:45:23;;;;;;;8.23;1.90;;;11.30;78.20;;;;;;5007260;28;20053;-79
2021/10/01 08:18:55;;;;;;;5.65;1.67;;;11.80;79.50;;;;;;5002810;28;20145;-80
2021/10/01 08:21:26;;;;;;;7.72;1.65;;;11.90;79.60;;;;;;4997624;28;20050;-80
2021/10/01 08:24:11;;;;;;;6.53;1.45;;;11.90;79.50;;;;;;4996946;28;20581;-79
2021/10/01 08:26:38;;;;;;;9.95;1.60;;;11.90;79.50;;;;;;4994371;28;20092;-81
2021/10/01 08:29:05;;;;;;;9.32;1.98;;;12.00;79.50;;;;;;4995252;28;20097;-80
2021/10/01 08:31:32;;;;;;;7.80;1.58;;;12.10;79.40;;;;;;5006146;28;20049;-80
2021/10/01 08:33:59;;;;;;;8.65;1.70;;;12.20;79.50;;;;;;5000339;28;20104;-80
2021/10/01 08:36:27;;;;;;;10.20;1.90;;;12.20;79.60;;;;;;4997030;28;20062;-81
2021/10/01 08:38:54;;;;;;;12.07;1.95;;;12.30;79.70;;;;;;4995862;28;20046;-79
2021/10/01 08:41:22;;;;;;;6.78;1.80;;;12.40;79.60;;;;;;4993428;28;20089;-79
2021/10/01 08:43:49;;;;;;;7.25;2.00;;;12.50;79.30;;;;;;4997289;28;20133;-80
2021/10/01 08:46:17;;;;;;;7.97;1.85;;;12.60;79.20;;;;;;4996779;28;20046;-81
2021/10/01 08:48:46;;;;;;;11.52;2.42;;;12.70;79.20;;;;;;4997174;28;20065;-80
2021/10/01 08:51:14;;;;;;;8.38;1.80;;;12.80;78.90;;;;;;4995263;28;20037;-79
2021/10/01 08:53:42;;;;;;;9.23;2.15;;;12.90;79.10;;;;;;4993196;28;20046;-80
2021/10/01 08:56:11;;;;;;;10.90;1.92;;;12.90;79.00;;;;;;4993486;28;20400;-80
2021/10/01 08:58:38;;;;;;;7.32;1.45;;;13.10;79.00;;;;;;4995790;28;20562;-80
2021/10/01 09:01:05;;;;;;;8.38;1.63;;;13.20;78.90;;;;;;4995600;28;20061;-80
2021/10/01 09:03:32;;;;;;;11.60;2.50;;;13.30;78.70;;;;;;4995722;28;20093;-79
2021/10/01 09:06:00;;;;;;;10.90;2.05;;;13.40;78.60;;;;;;4995577;28;20495;-79
2021/10/01 09:08:27;;;;;;;10.43;1.40;;;13.60;78.40;;;;;;4992735;28;20077;-80
2021/10/01 09:11:06;;;;;;;8.43;2.00;;;13.70;78.10;;;;;;5007038;28;20050;-80
2021/10/01 09:13:34;;;;;;;6.90;1.60;;;13.90;77.70;;;;;;5005914;28;20042;-79
2021/10/01 09:16:08;;;;;;;6.63;1.38;;;13.90;77.30;;;;;;4998324;28;20056;-79
2021/10/01 09:18:36;;;;;;;;;;;14.00;77.10;;;;;;4996331;28;20121;-80
2021/10/01 09:21:18;;;;;;;12.93;1.73;;;14.00;76.80;;;;;;4995667;28;19928;-79
2021/10/01 09:24:01;;;;;;;12.05;1.55;;;14.10;76.60;;;;;;4993542;28;20042;-79
2021/10/01 09:26:29;;;;;;;10.90;1.95;;;14.10;76.30;;;;;;4991679;28;20042;-80
2021/10/01 09:28:59;;;;;;;10.10;1.98;;;14.10;76.20;;;;;;4995372;28;20301;-80
2021/10/01 09:31:44;;;;;;;5.75;1.58;;;14.20;76.20;;;;;;4996281;28;20105;-85
2021/10/01 09:34:24;;;;;;;7.72;1.65;;;14.20;76.10;;;;;;4995251;28;20517;-84
2021/10/01 09:37:05;;;;;;;10.15;2.05;;;14.20;76.20;;;;;;4994787;28;20050;-84
2021/10/01 09:39:40;;;;;;;13.93;2.55;;;14.30;76.30;;;;;;4995257;28;20063;-83
2021/10/01 09:42:15;;;;;;;11.00;2.47;;;14.30;76.30;;;;;;4995455;28;20046;-85
2021/10/01 09:44:47;;;;;;;12.23;2.40;;;14.40;76.50;;;;;;4997992;28;20510;-83
2021/10/01 09:47:15;;;;;;;11.25;2.75;;;14.40;76.20;;;;;;5004840;28;20442;-84
2021/10/01 09:49:42;;;;;;;10.45;2.83;;;14.40;76.20;;;;;;5006893;28;20050;-84
2021/10/01 09:52:11;;;;;;;7.43;2.58;;;14.40;76.00;;;;;;4999493;28;20042;-86
2021/10/01 09:54:38;;;;;;;6.57;2.47;;;14.50;76.00;;;;;;5005850;28;20046;-84
2021/10/01 09:57:07;;;;;;;11.15;2.20;;;14.60;75.80;;;;;;5000371;28;20046;-84
2021/10/01 09:59:36;;;;;;;6.28;2.00;;;14.60;75.70;;;;;;4996824;28;20042;-83
2021/10/01 10:02:12;;;;;;;8.15;2.05;;;14.60;75.50;;;;;;5000259;28;20042;-84
2021/10/01 10:04:42;;;;;;;7.40;2.65;;;14.70;75.70;;;;;;4999839;28;20133;-83
2021/10/01 10:07:19;;;;;;;6.28;2.03;;;14.60;75.90;;;;;;4999780;28;20454;-83
2021/10/01 10:09:51;;;;;;;8.38;2.50;;;14.60;76.00;;;;;;4999975;28;20514;-85
2021/10/01 10:12:32;;;;;;;9.85;2.17;;;14.60;76.20;;;;;;5000226;28;20111;-84
2021/10/01 10:15:00;;;;;;;9.68;2.35;;;14.50;76.20;;;;;;5000188;28;20100;-84
2021/10/01 10:17:29;;;;;;;10.25;2.90;;;14.50;76.30;;;;;;4995948;28;20131;-85
2021/10/01 10:19:58;;;;;;;8.38;2.10;;;14.40;76.40;;;;;;5010897;28;20284;-85
2021/10/01 10:22:27;;;;;;;8.50;1.98;;;14.40;76.40;;;;;;5000699;28;20054;-85
2021/10/01 10:24:55;;;;;;;6.68;1.70;;;14.40;76.40;;;;;;4999726;28;20043;-86
2021/10/01 10:27:26;;;;;;;11.65;2.00;;;14.40;76.60;;;;;;4999402;28;20412;-84
2021/10/01 10:29:53;;;;;;;14.13;2.38;;;14.40;76.60;;;;;;4999021;28;20038;-85
2021/10/01 10:32:24;;;;;;;8.27;1.73;;;14.40;76.70;;;;;;4996451;28;20058;-88
2021/10/01 10:35:00;;;;;;;7.25;1.83;;;14.50;76.60;;;;;;4999134;28;20047;-87
2021/10/01 10:37:46;;;;;;;10.70;2.22;;;14.50;76.60;;;;;;5011740;28;20411;-87
2021/10/01 10:40:18;;;;;;;13.95;3.33;;;14.60;76.50;;;;;;5002110;28;20050;-87
2021/10/01 10:42:51;;;;;;;9.65;3.72;;;14.60;76.50;;;;;;4999296;28;20097;-85
2021/10/01 10:45:20;;;;;;;14.02;4.15;;;14.70;76.80;;;;;;4999422;28;20054;-85
2021/10/01 10:47:52;;;;;;;13.52;3.67;;;14.70;76.70;;;;;;4997691;28;20092;-87
2021/10/01 10:50:21;;;;;;;7.65;2.10;;;14.90;76.80;;;;;;4995743;28;20054;-87
2021/10/01 10:53:03;;;;;;;9.30;1.67;;;14.90;76.60;;;;;;4999370;28;20046;-84
2021/10/01 10:55:33;;;;;;;6.47;1.42;;;14.90;76.40;;;;;;5008609;28;20046;-84
2021/10/01 10:58:25;;;;;;;9.10;1.70;;;15.10;76.30;;;;;;5001946;28;20049;-85
2021/10/01 11:01:01;;;;;;;11.30;1.77;;;15.20;76.40;;;;;;4999198;28;20061;-86
2021/10/01 11:03:35;;;;;;;11.82;1.70;;;15.30;76.50;;;;;;4997617;28;20052;-86
2021/10/01 11:06:10;;;;;;;11.97;2.20;;;15.40;76.50;;;;;;4998847;28;20502;-86
2021/10/01 11:08:45;;;;;;;9.35;1.52;;;15.50;75.90;;;;;;4996269;28;20042;-85
2021/10/01 11:11:33;;;;;;;9.25;1.52;;;15.60;75.70;;;;;;4999813;28;20050;-85
2021/10/01 11:14:12;;;;;;;8.20;1.55;;;15.70;75.60;;;;;;4994655;28;20050;-86
2021/10/01 11:16:43;;;;;;;5.25;1.67;;;15.80;75.80;;;;;;4998997;28;20400;-86
2021/10/01 11:19:11;;;;;;;5.72;1.60;;;15.90;75.60;;;;;;4997766;28;20487;-87
2021/10/01 11:21:43;;;;;;;7.43;1.40;;;16.00;75.50;;;;;;4997473;28;20054;-87
2021/10/01 11:24:17;;;;;;;8.20;1.58;;;16.10;74.90;;;;;;4997601;28;20046;-88
2021/10/01 11:26:49;;;;;;;9.02;1.73;;;16.20;74.60;;;;;;4995423;28;20570;-88
2021/10/01 11:29:31;;;;;;;8.55;1.60;;;16.20;74.00;;;;;;4994608;28;20463;-89
2021/10/01 11:32:31;;;;;;;7.47;1.52;;;16.20;73.80;;;;;;5008794;28;20049;-89
2021/10/01 11:35:00;;;;;;;7.25;1.70;;;16.20;73.40;;;;;;5005990;28;20049;-91
2021/10/01 11:37:30;;;;;;;6.35;1.30;;;16.20;73.50;;;;;;4997840;28;20116;-87
2021/10/01 11:40:10;;;;;;;5.25;1.40;;;16.20;74.40;;;;;;4998804;28;20593;-89
2021/10/01 11:42:41;;;;;;;9.75;1.40;;;16.20;75.00;;;;;;4999559;28;20589;-91
2021/10/01 11:45:28;;;;;;;8.63;1.83;;;16.10;75.30;;;;;;5005638;28;20444;-89
2021/10/01 11:48:05;;;;;;;8.93;1.95;;;16.00;75.50;;;;;;5007975;28;20042;-93
2021/10/01 11:50:37;;;;;;;7.57;1.35;;;15.90;75.80;;;;;;4993410;28;20558;-92
2021/10/01 11:53:14;;;;;;;6.78;2.33;;;15.80;76.00;;;;;;4993947;28;20108;-91
2021/10/01 11:56:09;;;;;;;5.40;1.58;;;15.70;75.80;;;;;;4997143;28;20097;-91
2021/10/01 11:58:37;;;;;;;7.45;1.63;;;15.70;75.90;;;;;;5007657;28;20502;-89
2021/10/01 12:01:16;;;;;;;8.48;1.58;;;15.50;76.20;;;;;;5008130;28;20569;-89
2021/10/01 12:03:51;;;;;;;10.57;2.60;;;15.50;76.30;;;;;;5002559;28;20043;-91
2021/10/01 12:06:35;;;;;;;12.35;2.78;;;15.40;76.50;;;;;;4996861;28;20049;-89
2021/10/01 12:09:07;;;;;;;10.95;2.90;;;15.40;76.60;;;;;;4994270;28;20097;-89
2021/10/01 12:11:37;;;;;;;12.10;3.60;;;15.40;77.10;;;;;;5007531;28;20052;-91
2021/10/01 12:14:22;;;;;;;10.45;3.75;;;15.30;77.60;;;;;;5006801;28;20076;-89
2021/10/01 12:17:01;;;;;;;13.23;3.55;;;15.30;78.40;;;;;;4996484;28;20046;-90
2021/10/01 12:19:29;;;;;;;9.95;3.20;;;15.30;78.40;;;;;;5002608;28;20092;-88
2021/10/01 12:22:11;;;;;;;8.82;3.08;;;15.30;78.80;;;;;;4996398;28;20110;-89
2021/10/01 12:24:43;;;;;;;15.90;5.63;;;15.20;79.10;;;;;;4996779;28;20097;-88
2021/10/01 12:27:12;;;;;;;13.95;5.43;;;15.20;79.80;;;;;;4994720;28;20054;-87
2021/10/01 12:29:47;;;;;;;19.17;4.72;;;15.20;80.10;;;;;;5007474;28;20050;-89
2021/10/01 12:32:16;;;;;;;16.30;4.03;;;15.20;80.40;;;;;;4993470;28;20503;-88
2021/10/01 12:34:56;;;;;;;9.23;3.50;;;15.20;80.40;;;;;;4996226;28;20464;-88
2021/10/01 12:37:27;;;;;;;7.85;2.90;;;15.20;80.40;;;;;;4996628;28;20120;-88
2021/10/01 12:39:57;;;;;;;8.70;2.60;;;15.20;80.40;;;;;;4996135;28;20043;-90
2021/10/01 12:42:33;;;;;;;8.80;2.53;;;15.20;80.50;;;;;;4996030;28;20054;-89
2021/10/01 12:45:04;;;;;;;7.53;2.75;;;15.20;80.60;;;;;;4995786;28;20422;-86
2021/10/01 12:47:37;;;;;;;8.90;2.55;;;15.20;80.80;;;;;;4990980;28;20053;-86
2021/10/01 12:50:19;;;;;;;5.90;2.40;;;15.10;80.70;;;;;;4993785;28;20112;-87
2021/10/01 12:52:55;;;;;;;16.25;3.15;;;15.10;80.90;;;;;;4996187;28;20058;-87
2021/10/01 12:55:22;;;;;;;6.00;2.50;;;15.10;80.90;;;;;;4995732;28;20097;-87
2021/10/01 12:57:51;;;;;;;8.23;2.75;;;15.10;81.20;;;;;;5000421;28;20053;-86
2021/10/01 13:00:20;;;;;;;10.80;2.80;;;15.10;81.20;;;;;;4996006;28;20089;-86
2021/10/01 13:02:47;;;;;;;8.32;2.42;;;14.90;81.30;;;;;;5007427;28;20042;-88
2021/10/01 13:05:20;;;;;;;7.78;2.10;;;15.00;81.30;;;;;;5010110;28;20069;-87
2021/10/01 13:08:13;;;;;;;7.75;2.10;;;14.90;81.60;;;;;;5008218;28;20054;-87
2021/10/01 13:10:42;;;;;;;14.65;2.50;;;14.90;81.70;;;;;;4995698;28;20125;-86
2021/10/01 13:13:33;;;;;;;8.27;2.28;;;14.90;81.90;;;;;;4995952;28;20045;-85
2021/10/01 13:16:03;;;;;;;12.20;2.30;;;14.80;82.00;;;;;;4995288;28;20129;-86
2021/10/01 13:18:32;;;;;;;6.50;2.40;;;14.80;82.20;;;;;;4995640;28;20044;-86
2021/10/01 13:21:02;;;;;;;9.27;2.70;;;14.80;82.40;;;;;;4995395;28;20108;-85
2021/10/01 13:23:32;;;;;;;6.47;2.42;;;14.70;82.50;;;;;;4991373;28;20046;-87
2021/10/01 13:26:14;;;;;;;9.60;2.00;;;14.70;82.90;;;;;;4995398;28;20060;-86
2021/10/01 13:28:47;;;;;;;10.52;2.38;;;14.70;83.00;;;;;;4999359;28;20054;-87
2021/10/01 13:31:18;;;;;;;12.88;2.35;;;14.70;83.10;;;;;;4999664;28;20097;-87
2021/10/01 13:33:45;;;;;;;10.90;2.17;;;14.70;83.30;;;;;;4999436;28;20054;-85
2021/10/01 13:36:13;;;;;;;8.20;2.33;;;14.70;83.30;;;;;;4999218;28;20046;-85
2021/10/01 13:38:42;;;;;;;10.10;2.35;;;14.70;83.30;;;;;;4996689;28;20536;-89
2021/10/01 13:41:12;;;;;;;6.93;1.85;;;14.70;83.50;;;;;;4997375;28;20054;-88
2021/10/01 13:43:40;;;;;;;8.13;1.90;;;14.70;83.70;;;;;;4999105;28;20050;-85
2021/10/01 13:46:09;;;;;;;7.93;2.00;;;14.70;83.90;;;;;;4999447;28;20454;-84
2021/10/01 13:48:37;;;;;;;8.05;2.03;;;14.70;84.10;;;;;;4999232;28;20042;-84
2021/10/01 13:51:05;;;;;;;7.80;2.10;;;14.70;84.10;;;;;;4999478;28;20104;-85
2021/10/01 13:53:32;;;;;;;8.40;1.90;;;14.80;84.10;;;;;;4995312;28;20045;-86
2021/10/01 13:55:59;;;;;;;6.15;1.70;;;14.80;84.30;;;;;;4997999;28;20047;-85
2021/10/01 13:58:26;;;;;;;7.32;2.10;;;14.80;84.40;;;;;;4999484;28;20112;-86
2021/10/01 14:00:55;;;;;;;14.82;2.13;;;14.80;84.30;;;;;;4998997;28;20046;-85
2021/10/01 14:03:23;;;;;;;11.32;1.90;;;14.80;84.20;;;;;;4998996;28;20077;-86
2021/10/01 14:05:51;;;;;;;6.78;1.77;;;14.80;84.30;;;;;;4996092;28;20042;-87
2021/10/01 14:08:19;;;;;;;9.20;2.22;;;14.90;84.30;;;;;;5010618;28;20049;-86
2021/10/01 14:10:46;;;;;;;7.97;2.45;;;14.80;84.20;;;;;;4998880;28;20054;-84
2021/10/01 14:13:14;;;;;;;7.38;2.10;;;14.90;84.20;;;;;;4998509;28;20495;-84
2021/10/01 14:15:43;;;;;;;8.77;1.92;;;14.90;84.30;;;;;;4998705;28;20458;-86
2021/10/01 14:18:13;;;;;;;6.72;2.28;;;14.90;84.30;;;;;;4998552;28;20042;-85
2021/10/01 14:20:42;;;;;;;8.07;2.53;;;14.90;84.30;;;;;;4996142;28;20054;-86
2021/10/01 14:23:09;;;;;;;8.55;2.30;;;14.90;84.30;;;;;;4996509;28;20124;-86
2021/10/01 14:25:37;;;;;;;8.10;1.92;;;14.90;84.40;;;;;;4998652;28;20058;-85
2021/10/01 14:28:05;;;;;;;11.15;2.55;;;14.90;84.50;;;;;;4998478;28;20053;-85
2021/10/01 14:30:34;;;;;;;10.98;2.30;;;14.90;84.50;;;;;;4998743;28;20108;-86
2021/10/01 14:33:03;;;;;;;9.40;2.30;;;14.90;84.50;;;;;;4998374;28;20588;-85
2021/10/01 14:35:39;;;;;;;8.32;3.35;;;14.90;84.50;;;;;;4994118;28;20550;-87
2021/10/01 14:38:08;;;;;;;10.93;2.92;;;14.90;84.50;;;;;;5008402;28;20054;-88
2021/10/01 14:40:39;;;;;;;9.57;2.10;;;14.90;84.40;;;;;;4998343;28;20043;-85